Latest Coastal Weather Observations for Townsville

IDQ60701

Issued at 3:51 pm EST Monday 30 March 2015 (issued every 10 minutes, with the page automatically refreshed every 10 minutes)

About coastal observations | Map of coastal stations | Coastal observations for QLD | Marine services | Other Formats
Station Details ID: 032040 Name: TOWNSVILLE AERO Lat: -19.25 Lon: 146.77 Height: 4.34 m
Data from the previous 72 hours. | See also: Recent months at Townsville
Date/Time
EST
Temp

°C
Wind Pressure Rain
since 9am
mm
Weather Cloud Vis
km
Sea
Height
m
Swell
Dir
 
Speed
knots
Gust
knots
hPa Trend Height
m
Period
s
Dir
30/03:30pm 30.8 ENE 16 19 1014.9 - 0.0 - Mostly clear 10 - - - -
30/03:00pm 31.4 ENE 17 20 1014.7 R 0.0 Haze Mostly clear 35 - - - -
30/02:30pm 31.0 ENE 16 19 1014.8 - 0.0 - Mostly clear 10 - - - -
30/02:00pm 32.0 ENE 18 22 1015.0 - 0.0 - Mostly clear 10 - - - -
30/01:30pm 31.3 ENE 17 21 1015.2 - 0.0 - Mostly clear 10 - - - -
30/01:00pm 32.1 E 18 22 1015.6 - 0.0 - Mostly clear 10 - - - -
30/12:30pm 32.6 ENE 17 22 1016.1 - 0.0 - Mostly clear 10 - - - -
30/12:00pm 32.0 E 18 22 1016.4 F 0.0 Haze Mostly cloudy 35 - - - -
30/11:30am 31.7 E 17 20 1017.2 - 0.0 - Partly cloudy 10 - - - -
30/11:00am 31.9 E 15 20 1017.8 - 0.0 - Partly cloudy 10 - - - -
30/10:30am 30.8 E 15 22 1018.1 - 0.0 - Partly cloudy 10 - - - -
30/10:00am 30.2 ESE 15 20 1018.2 - 0.0 - Partly cloudy 10 - - - -
30/09:30am 29.6 ESE 14 19 1018.3 - 0.0 - Partly cloudy 10 - - - -
30/09:00am 28.8 SE 13 17 1018.2 R 0.0 Distant precip. Mostly cloudy 25 - - - -
30/08:30am 28.0 SE 14 19 1018.0 - 0.0 - Partly cloudy 10 - - - -
30/08:00am 27.9 SE 8 12 1017.3 - 0.0 - Mostly clear 10 - - - -
30/07:30am 26.9 SE 7 8 1016.9 - 0.0 - Mostly clear 10 - - - -
30/07:00am 26.0 SE 7 9 1016.9 - 0.0 - Mostly clear 10 - - - -
30/06:30am 25.1 S 6 7 1016.7 - 0.0 - Mostly clear 10 - - - -
30/06:00am 25.0 S 5 7 1016.4 R 0.0 Haze Mostly cloudy 20 - - - -
30/05:30am 25.4 S 6 8 1016.2 - 0.0 - Partly cloudy 10 - - - -
30/05:00am 25.4 SE 5 7 1015.9 - 0.0 - Partly cloudy 10 - - - -
30/04:30am 25.5 SE 5 7 1015.6 - 0.0 - - 10 - - - -
30/04:00am 25.4 SSE 6 7 1015.5 - 0.0 - - 10 - - - -
30/03:30am 25.5 SSE 6 8 1015.5 - 0.0 - - 10 - - - -
30/03:00am 25.7 SSE 5 6 1015.6 - 0.0 - - 10 - - - -
30/02:30am 26.2 SE 7 10 1015.9 - 0.0 - - 10 - - - -
30/02:00am 26.1 SE 7 9 1016.1 - 0.0 - Partly cloudy 10 - - - -
30/01:30am 26.5 SE 7 9 1016.6 - 0.0 - - 10 - - - -
30/01:00am 26.8 ESE 9 11 1016.8 - 0.0 - - 10 - - - -
30/12:30am 26.9 SE 8 10 1017.2 - 0.0 - Partly cloudy 10 - - - -
30/12:00am 27.0 SE 7 9 1017.3 - 0.0 - Cloudy 10 - - - -
 
Date/Time
EST
Temp

°C
Wind Pressure Rain
since 9am
mm
Weather Cloud Vis
km
Sea
Height
m
Swell
Dir
 
Speed
knots
Gust
knots
hPa Trend Height
m
Period
s
Dir
29/11:30pm 27.1 SE 7 9 1017.5 - 0.0 - Partly cloudy 10 - - - -
29/11:00pm 27.3 ESE 9 10 1017.7 - 0.0 - - 10 - - - -
29/10:30pm 27.3 SE 10 12 1017.8 - 0.0 - Partly cloudy 10 - - - -
29/10:00pm 27.8 E 11 15 1017.8 - 0.0 - Mostly clear 10 - - - -
29/09:30pm 27.6 SE 7 10 1017.9 - 0.0 - Partly cloudy 10 - - - -
29/09:00pm 28.1 E 11 17 1017.6 R 0.0 Haze Partly cloudy 30 - - - -
29/08:30pm 28.2 E 12 17 1017.4 - 0.0 - Mostly clear 10 - - - -
29/08:00pm 28.1 E 14 18 1017.2 - 0.0 - Mostly clear 10 - - - -
29/07:30pm 28.2 E 12 16 1016.7 - 0.0 - Mostly clear 10 - - - -
29/07:00pm 28.2 ESE 12 16 1016.5 - 0.0 - Mostly clear 10 - - - -
29/06:30pm 28.1 E 11 15 1016.1 - 0.0 - Mostly clear 10 - - - -
29/06:00pm 28.7 ESE 11 14 1015.7 R 0.0 Haze Mostly cloudy 30 - - - -
29/05:30pm 29.4 ENE 14 16 1015.4 - 0.0 - Mostly clear 10 - - - -
29/05:00pm 29.2 ENE 14 17 1015.3 - 0.0 - Mostly clear 10 - - - -
29/04:30pm 29.4 ENE 17 19 1015.0 - 0.0 - Mostly clear 10 - - - -
29/04:00pm 30.5 ENE 15 18 1015.0 - 0.0 - Mostly clear 10 - - - -
29/03:30pm 30.8 ENE 18 22 1014.7 - 0.0 - Mostly clear 10 - - - -
29/03:00pm 31.7 ENE 17 21 1014.7 F 0.0 Haze Mostly cloudy 30 - - - -
29/02:30pm 31.3 ENE 15 20 1014.9 - 0.0 - Mostly clear 10 - - - -
29/02:00pm 31.9 ENE 17 20 1015.1 - 0.0 - Mostly clear 10 - - - -
29/01:30pm 31.7 ENE 17 22 1015.4 - 0.0 - - 10 - - - -
29/01:00pm 31.6 ENE 17 22 1015.8 - 0.0 - Mostly clear 10 - - - -
29/12:30pm 32.1 E 18 26 1016.4 - 0.0 - Partly cloudy 10 - - - -
29/12:00pm 31.6 E 17 22 1017.0 R 0.0 Haze Mostly cloudy 25 - - - -
29/11:30am 31.3 E 17 22 1017.5 - 0.0 - Partly cloudy 10 - - - -
29/11:00am 31.0 E 15 21 1017.8 - 0.0 - Partly cloudy 10 - - - -
29/10:30am 30.6 E 15 18 1018.1 - 0.0 - Partly cloudy 10 - - - -
29/10:00am 29.3 ESE 11 16 1018.3 - 0.0 - Partly cloudy 10 - - - -
29/09:30am 29.8 ESE 13 20 1018.1 - 0.0 - Partly cloudy 10 - - - -
29/09:00am 29.9 ESE 12 19 1017.9 R 0.0 Haze Partly cloudy 30 - - - -
29/08:30am 29.2 E 11 14 1017.7 - 0.0 - Mostly clear 10 - - - -
29/08:00am 28.0 SE 6 9 1017.3 - 0.0 - Mostly clear 10 - - - -
29/07:30am 27.3 SE 5 6 1016.9 - 0.0 - Mostly clear 10 - - - -
29/07:00am 26.0 SE 5 7 1016.5 - 0.0 - Partly cloudy 10 - - - -
29/06:30am 24.9 SE 6 7 1016.1 - 0.0 - Partly cloudy 10 - - - -
29/06:00am 24.8 SE 5 6 1015.5 R 0.0 Distant precip. Partly cloudy 25 - - - -
29/05:30am 25.3 ESE 7 8 1015.1 - 0.0 - Partly cloudy 10 - - - -
29/05:00am 25.0 ESE 6 7 1014.8 - 0.0 - - 10 - - - -
29/04:30am 25.1 SE 6 8 1014.7 - 0.0 - Partly cloudy 10 - - - -
29/04:00am 24.9 SE 6 7 1014.7 - 0.0 - - 10 - - - -
29/03:30am 25.3 SSE 6 7 1014.5 - 0.0 - Partly cloudy 10 - - - -
29/03:00am 25.1 SSE 7 8 1014.5 - 0.0 - Mostly clear 10 - - - -
29/02:30am 25.2 SSE 6 8 1014.8 - 0.0 - - 10 - - - -
29/02:00am 25.5 SE 7 8 1014.9 - 0.0 - - 10 - - - -
29/01:30am 25.7 SE 8 10 1015.3 - 0.0 - - 10 - - - -
29/01:00am 26.2 ESE 9 12 1015.5 - 0.0 - - 10 - - - -
29/12:30am 26.3 ESE 6 9 1015.8 - 0.0 - - 10 - - - -
29/12:00am 26.7 SE 7 10 1016.0 - 0.0 - Mostly clear 10 - - - -
 
Date/Time
EST
Temp

°C
Wind Pressure Rain
since 9am
mm
Weather Cloud Vis
km
Sea
Height
m
Swell
Dir
 
Speed
knots
Gust
knots
hPa Trend Height
m
Period
s
Dir
28/11:30pm 27.0 SE 8 11 1016.3 - 0.0 - - 10 - - - -
28/11:00pm 27.4 ESE 8 10 1016.3 - 0.0 - Partly cloudy 10 - - - -
28/10:30pm 27.2 ESE 9 12 1016.3 - 0.0 - Partly cloudy 10 - - - -
28/10:00pm 27.4 SE 9 12 1016.4 - 0.0 - Mostly clear 10 - - - -
28/09:30pm 27.9 E 10 14 1016.3 - 0.0 - Partly cloudy 10 - - - -
28/09:00pm 27.9 E 9 14 1016.2 R 0.0 Fine Partly cloudy 35 - - - -
28/08:30pm 28.0 E 10 15 1015.9 - 0.0 - Partly cloudy 10 - - - -
28/08:00pm 27.9 E 11 15 1015.8 - 0.0 - Partly cloudy 10 - - - -
28/07:30pm 28.0 E 12 16 1015.3 - 0.0 - Mostly clear 10 - - - -
28/07:00pm 28.1 E 13 18 1014.8 - 0.0 - Mostly clear 10 - - - -
28/06:30pm 28.3 E 13 17 1014.4 - 0.0 - Mostly clear 10 - - - -
28/06:00pm 28.9 E 15 18 1014.0 S 0.0 Fine Mostly clear 35 - - - -
28/05:30pm 29.4 E 14 18 1013.8 - 0.0 - Mostly clear 10 - - - -
28/05:00pm 30.2 ENE 16 19 1013.6 - 0.0 - Mostly clear 10 - - - -
28/04:30pm 30.3 NE 13 16 1013.6 - 0.0 - Mostly clear 10 - - - -
28/04:00pm 30.9 ENE 15 19 1013.6 - 0.0 - Mostly clear 10 - - - -
28/03:30pm 31.1 NE 16 20 1013.7 - 0.0 - Mostly clear 10 - - - -
28/03:00pm 31.1 ENE 16 20 1013.6 R 0.0 Fine Mostly clear 40 - - - -
28/02:30pm 31.2 ENE 17 21 1013.8 - 0.0 - Mostly clear 10 - - - -
28/02:00pm 31.7 ENE 17 21 1014.1 - 0.0 - Mostly clear 10 - - - -
28/01:30pm 31.4 ENE 16 19 1014.4 - 0.0 - - 10 - - - -
28/01:00pm 32.3 ENE 16 20 1014.6 - 0.0 - Mostly clear 10 - - - -
28/12:30pm 31.6 NE 14 18 1015.1 - 0.0 - Mostly clear 10 - - - -
28/12:00pm 31.3 ENE 14 18 1015.6 F 0.0 Fine Mostly cloudy 45 - - - -
28/11:30am 31.4 ENE 15 19 1016.2 - 0.0 - Mostly clear 10 - - - -
28/11:00am 30.6 ENE 14 19 1016.7 - 0.0 - Mostly clear 10 - - - -
28/10:30am 30.8 E 11 19 1017.1 - 0.0 - Partly cloudy 10 - - - -
28/10:00am 30.6 E 11 16 1017.3 - 0.0 - Partly cloudy 10 - - - -
28/09:30am 29.6 ESE 11 16 1017.4 - 0.0 - Partly cloudy 10 - - - -
28/09:00am 29.5 ESE 11 18 1017.1 R 0.0 Fine Mostly cloudy 40 - - - -
28/08:30am 28.6 SE 7 13 1017.1 - 0.0 - Mostly clear 10 - - - -
28/08:00am 27.4 SE 7 8 1016.8 - 0.0 - Mostly clear 10 - - - -
28/07:30am 26.3 S 6 7 1016.4 - 0.0 - Mostly clear 10 - - - -
28/07:00am 25.4 SE 6 7 1016.1 - 0.0 - Mostly clear 10 - - - -
28/06:30am 24.7 SE 7 8 1015.8 - 0.0 - Mostly clear 10 - - - -
28/06:00am 24.5 SSE 6 7 1015.3 R 0.0 Haze Mostly clear 30 - - - -
28/05:30am 25.0 SSE 7 8 1015.0 - 0.0 - - 10 - - - -
28/05:00am 24.9 SE 6 8 1014.8 - 0.0 - - 10 - - - -
28/04:30am 25.1 SE 7 7 1014.7 - 0.0 - - 10 - - - -
28/04:00am 25.1 SSE 7 7 1014.5 - 0.0 - - 10 - - - -
28/03:30am 25.3 SE 6 7 1014.5 - 0.0 - - 10 - - - -
28/03:00am 25.5 S 6 7 1014.5 - 0.0 - Mostly clear 10 - - - -
28/02:30am 25.8 SSE 6 7 1014.6 - 0.0 - Partly cloudy 10 - - - -
28/02:00am 26.2 SSE 6 7 1014.7 - 0.0 - - 10 - - - -
28/01:30am 26.4 SSE 6 7 1014.8 - 0.0 - Partly cloudy 10 - - - -
28/01:00am 26.5 SSE 5 6 1015.1 - 0.0 - Partly cloudy 10 - - - -
28/12:30am 27.2 ESE 5 7 1015.5 - 0.0 - Partly cloudy 10 - - - -
28/12:00am 27.4 E 5 8 1015.5 - 0.0 - Mostly clear 10 - - - -
 
Date/Time
EST
Temp

°C
Wind Pressure Rain
since 9am
mm
Weather Cloud Vis
km
Sea
Height
m
Swell
Dir
 
Speed
knots
Gust
knots
hPa Trend Height
m
Period
s
Dir
27/11:30pm 27.5 E 7 9 1015.8 - 0.0 - Partly cloudy 10 - - - -
27/11:00pm 27.7 E 8 10 1015.9 - 0.0 - Partly cloudy 10 - - - -
27/10:30pm 27.6 ENE 8 10 1016.0 - 0.0 - Partly cloudy 10 - - - -
27/10:00pm 27.7 ENE 8 10 1016.1 - 0.0 - Partly cloudy 10 - - - -
27/09:30pm 27.9 E 7 9 1016.0 - 0.0 - Partly cloudy 10 - - - -
27/09:00pm 27.7 ENE 7 8 1015.7 - 0.0 - Mostly clear 10 - - - -
27/08:30pm 27.8 ENE 7 9 1015.5 - 0.0 - Partly cloudy 10 - - - -
27/08:00pm 27.7 ENE 7 9 1015.3 - 0.0 - Partly cloudy 10 - - - -
27/07:30pm 27.8 ENE 8 10 1015.0 - 0.0 - - 10 - - - -
27/07:00pm 27.9 ENE 8 11 1014.6 - 0.0 - - 10 - - - -
27/06:30pm 28.0 NE 7 10 1014.5 - 0.0 - - 10 - - - -
27/06:00pm 28.5 NE 9 10 1014.1 - 0.0 - - 10 - - - -
27/05:30pm 29.1 NE 10 14 1014.0 - 0.0 - Mostly clear 10 - - - -
27/05:00pm 29.4 ENE 13 15 1014.0 - 0.0 - Mostly clear 10 - - - -
27/04:30pm 30.3 NE 13 17 1013.6 - 0.0 - Mostly clear 10 - - - -
27/04:00pm 29.9 NE 15 18 1013.6 - 0.0 - Mostly clear 10 - - - -

Other Formats:

Comma delimited format used in spreadsheet applications
http://www.bom.gov.au/fwo/IDQ60701/IDQ60701.94294.axf

JavaScript Object Notation format (JSON) in row-major order
http://www.bom.gov.au/fwo/IDQ60701/IDQ60701.94294.json